America, Illinois
Current Conditions -  °F | °C
As of 4:15 PM on Friday 24 Oct 2014 (Local Time) from KCIR Reporting Station
Clear Clear  
Wind Chill: 73°   Ceiling: Unl
Heat Index: 73°   Visibility: 10mi
Dew Point: 53°   Wind: 3mph
Humidity: 49%   Direction: 280°W
Pressure: 30.06"   Gusts: NA
Location:  37.1575°N, 89.1781°W
Report Text: KCIR 242115Z AUTO 28003KT 10SM CLR 23/11 A3006 RMK AO2 T02260114
Loading
Personal Weather Stations






























Interactive Weather Map New forecast layout! Learn more

10-Day Weather Forecast

Advertisements
Track Severe Weather on mobile